sensor_id;sensor_type;location;lat;lon;timestamp;temperature;humidity
9776;DHT22;4927;52.472;13.108;2022-09-09T00:05:14;14.00;99.90
9776;DHT22;4927;52.472;13.108;2022-09-09T00:10:28;14.00;99.90
9776;DHT22;4927;52.472;13.108;2022-09-09T00:15:37;13.90;99.90
9776;DHT22;4927;52.472;13.108;2022-09-09T00:20:45;13.90;99.90
9776;DHT22;4927;52.472;13.108;2022-09-09T00:25:57;13.80;99.90
9776;DHT22;4927;52.472;13.108;2022-09-09T00:31:04;13.80;99.90
9776;DHT22;4927;52.472;13.108;2022-09-09T00:36:09;13.60;99.90
9776;DHT22;4927;52.472;13.108;2022-09-09T00:41:22;13.60;99.90
9776;DHT22;4927;52.472;13.108;2022-09-09T00:46:39;13.50;99.90
9776;DHT22;4927;52.472;13.108;2022-09-09T00:52:14;13.40;99.90
9776;DHT22;4927;52.472;13.108;2022-09-09T00:57:32;13.40;99.90
9776;DHT22;4927;52.472;13.108;2022-09-09T01:02:41;13.30;99.90
9776;DHT22;4927;52.472;13.108;2022-09-09T01:07:47;13.30;99.90
9776;DHT22;4927;52.472;13.108;2022-09-09T01:12:52;13.20;99.90
9776;DHT22;4927;52.472;13.108;2022-09-09T01:18:05;13.20;99.90
9776;DHT22;4927;52.472;13.108;2022-09-09T01:23:33;13.20;99.90
9776;DHT22;4927;52.472;13.108;2022-09-09T01:28:35;13.20;99.90
9776;DHT22;4927;52.472;13.108;2022-09-09T01:33:41;13.20;99.90
9776;DHT22;4927;52.472;13.108;2022-09-09T01:38:48;13.10;99.90
9776;DHT22;4927;52.472;13.108;2022-09-09T01:43:54;13.10;99.90
9776;DHT22;4927;52.472;13.108;2022-09-09T01:49:00;13.10;99.90
9776;DHT22;4927;52.472;13.108;2022-09-09T01:54:07;13.10;99.90
9776;DHT22;4927;52.472;13.108;2022-09-09T02:04:50;13.10;99.90
9776;DHT22;4927;52.472;13.108;2022-09-09T02:10:09;13.00;99.90
9776;DHT22;4927;52.472;13.108;2022-09-09T02:15:16;13.00;99.90
9776;DHT22;4927;52.472;13.108;2022-09-09T02:20:18;13.00;99.90
9776;DHT22;4927;52.472;13.108;2022-09-09T02:25:26;12.90;99.90
9776;DHT22;4927;52.472;13.108;2022-09-09T02:30:32;12.90;99.90
9776;DHT22;4927;52.472;13.108;2022-09-09T02:35:38;12.90;99.90
9776;DHT22;4927;52.472;13.108;2022-09-09T02:40:44;12.90;99.90
9776;DHT22;4927;52.472;13.108;2022-09-09T02:46:01;13.00;99.90
9776;DHT22;4927;52.472;13.108;2022-09-09T02:51:17;12.90;99.90
9776;DHT22;4927;52.472;13.108;2022-09-09T02:56:25;12.90;99.90
9776;DHT22;4927;52.472;13.108;2022-09-09T03:01:34;12.90;99.90
9776;DHT22;4927;52.472;13.108;2022-09-09T03:06:41;12.90;99.90
9776;DHT22;4927;52.472;13.108;2022-09-09T03:11:47;12.90;99.90
9776;DHT22;4927;52.472;13.108;2022-09-09T03:16:53;12.80;99.90
9776;DHT22;4927;52.472;13.108;2022-09-09T03:22:00;12.70;99.90
9776;DHT22;4927;52.472;13.108;2022-09-09T03:27:10;12.70;99.90
9776;DHT22;4927;52.472;13.108;2022-09-09T03:32:16;12.70;99.90
9776;DHT22;4927;52.472;13.108;2022-09-09T03:37:23;12.60;99.90
9776;DHT22;4927;52.472;13.108;2022-09-09T03:42:30;12.50;99.90
9776;DHT22;4927;52.472;13.108;2022-09-09T03:47:36;12.50;99.90
9776;DHT22;4927;52.472;13.108;2022-09-09T03:52:41;12.50;99.90
9776;DHT22;4927;52.472;13.108;2022-09-09T03:57:47;12.50;99.90
9776;DHT22;4927;52.472;13.108;2022-09-09T04:02:53;12.50;99.90
9776;DHT22;4927;52.472;13.108;2022-09-09T04:08:00;12.40;99.90
9776;DHT22;4927;52.472;13.108;2022-09-09T04:13:06;12.40;99.90
9776;DHT22;4927;52.472;13.108;2022-09-09T04:18:12;12.30;99.90
9776;DHT22;4927;52.472;13.108;2022-09-09T04:23:19;12.30;99.90
9776;DHT22;4927;52.472;13.108;2022-09-09T04:28:25;12.30;99.90
9776;DHT22;4927;52.472;13.108;2022-09-09T04:33:31;12.30;99.90
9776;DHT22;4927;52.472;13.108;2022-09-09T04:38:37;12.30;99.90
9776;DHT22;4927;52.472;13.108;2022-09-09T04:43:43;12.30;99.90
9776;DHT22;4927;52.472;13.108;2022-09-09T04:48:50;12.20;99.90
9776;DHT22;4927;52.472;13.108;2022-09-09T04:53:56;12.30;99.90
9776;DHT22;4927;52.472;13.108;2022-09-09T04:59:02;12.30;99.90
9776;DHT22;4927;52.472;13.108;2022-09-09T05:04:08;12.40;99.90
9776;DHT22;4927;52.472;13.108;2022-09-09T05:09:15;12.60;99.90
9776;DHT22;4927;52.472;13.108;2022-09-09T05:14:22;12.60;99.90
9776;DHT22;4927;52.472;13.108;2022-09-09T05:19:32;12.70;99.90
9776;DHT22;4927;52.472;13.108;2022-09-09T05:24:38;12.80;99.90
9776;DHT22;4927;52.472;13.108;2022-09-09T05:29:45;12.90;99.90
9776;DHT22;4927;52.472;13.108;2022-09-09T05:34:51;13.10;99.90
9776;DHT22;4927;52.472;13.108;2022-09-09T05:39:57;13.20;99.90
9776;DHT22;4927;52.472;13.108;2022-09-09T05:45:04;13.40;99.90
9776;DHT22;4927;52.472;13.108;2022-09-09T05:50:10;13.50;99.90
9776;DHT22;4927;52.472;13.108;2022-09-09T05:55:17;13.60;99.90
9776;DHT22;4927;52.472;13.108;2022-09-09T06:00:27;13.60;99.90
9776;DHT22;4927;52.472;13.108;2022-09-09T06:05:34;13.80;99.90
9776;DHT22;4927;52.472;13.108;2022-09-09T06:10:40;13.90;99.90
9776;DHT22;4927;52.472;13.108;2022-09-09T06:15:50;14.20;99.90
9776;DHT22;4927;52.472;13.108;2022-09-09T06:20:57;14.40;99.90
9776;DHT22;4927;52.472;13.108;2022-09-09T06:26:05;14.50;99.90
9776;DHT22;4927;52.472;13.108;2022-09-09T06:31:11;14.70;99.90
9776;DHT22;4927;52.472;13.108;2022-09-09T06:36:20;14.80;99.90
9776;DHT22;4927;52.472;13.108;2022-09-09T06:41:26;14.80;99.90
9776;DHT22;4927;52.472;13.108;2022-09-09T06:46:31;14.80;99.90
9776;DHT22;4927;52.472;13.108;2022-09-09T06:51:37;14.90;99.90
9776;DHT22;4927;52.472;13.108;2022-09-09T06:56:43;15.10;99.90
9776;DHT22;4927;52.472;13.108;2022-09-09T07:01:49;15.30;99.90
9776;DHT22;4927;52.472;13.108;2022-09-09T07:06:56;15.40;99.90
9776;DHT22;4927;52.472;13.108;2022-09-09T07:12:03;15.70;99.90
9776;DHT22;4927;52.472;13.108;2022-09-09T07:17:09;15.70;99.90
9776;DHT22;4927;52.472;13.108;2022-09-09T07:22:13;15.80;99.90
9776;DHT22;4927;52.472;13.108;2022-09-09T07:27:20;16.00;99.90
9776;DHT22;4927;52.472;13.108;2022-09-09T07:32:27;16.30;99.90
9776;DHT22;4927;52.472;13.108;2022-09-09T07:37:35;16.30;99.90
9776;DHT22;4927;52.472;13.108;2022-09-09T07:42:37;16.40;99.90
9776;DHT22;4927;52.472;13.108;2022-09-09T07:47:43;16.50;99.90
9776;DHT22;4927;52.472;13.108;2022-09-09T07:52:51;16.70;99.90
9776;DHT22;4927;52.472;13.108;2022-09-09T07:57:57;16.90;99.90
9776;DHT22;4927;52.472;13.108;2022-09-09T08:03:03;17.10;99.90
9776;DHT22;4927;52.472;13.108;2022-09-09T08:08:10;17.20;99.90
9776;DHT22;4927;52.472;13.108;2022-09-09T08:13:17;17.40;99.90
9776;DHT22;4927;52.472;13.108;2022-09-09T08:18:23;17.40;99.90
9776;DHT22;4927;52.472;13.108;2022-09-09T08:23:29;17.50;99.90
9776;DHT22;4927;52.472;13.108;2022-09-09T08:28:40;17.60;99.90
9776;DHT22;4927;52.472;13.108;2022-09-09T08:33:44;17.60;99.90
9776;DHT22;4927;52.472;13.108;2022-09-09T08:38:51;17.50;99.90
9776;DHT22;4927;52.472;13.108;2022-09-09T08:44:07;17.60;99.90
9776;DHT22;4927;52.472;13.108;2022-09-09T08:49:22;17.90;99.90
9776;DHT22;4927;52.472;13.108;2022-09-09T08:54:25;17.90;99.90
9776;DHT22;4927;52.472;13.108;2022-09-09T08:59:31;18.00;99.90
9776;DHT22;4927;52.472;13.108;2022-09-09T09:04:40;18.00;99.90
9776;DHT22;4927;52.472;13.108;2022-09-09T09:09:49;18.10;99.90
9776;DHT22;4927;52.472;13.108;2022-09-09T09:14:50;18.40;99.90
9776;DHT22;4927;52.472;13.108;2022-09-09T09:19:56;18.60;99.90
9776;DHT22;4927;52.472;13.108;2022-09-09T09:25:09;18.70;99.90
9776;DHT22;4927;52.472;13.108;2022-09-09T09:30:15;19.20;99.90
9776;DHT22;4927;52.472;13.108;2022-09-09T09:35:20;19.20;99.90
9776;DHT22;4927;52.472;13.108;2022-09-09T09:40:27;19.40;99.90
9776;DHT22;4927;52.472;13.108;2022-09-09T09:45:41;19.50;99.90
9776;DHT22;4927;52.472;13.108;2022-09-09T09:50:47;19.70;99.90
9776;DHT22;4927;52.472;13.108;2022-09-09T09:56:01;19.80;99.90
9776;DHT22;4927;52.472;13.108;2022-09-09T10:01:18;20.20;99.90
9776;DHT22;4927;52.472;13.108;2022-09-09T10:06:14;20.10;99.90
9776;DHT22;4927;52.472;13.108;2022-09-09T10:11:31;20.30;99.90
9776;DHT22;4927;52.472;13.108;2022-09-09T10:16:56;20.40;99.90
9776;DHT22;4927;52.472;13.108;2022-09-09T10:27:23;20.60;99.90
9776;DHT22;4927;52.472;13.108;2022-09-09T10:32:37;20.60;99.90
9776;DHT22;4927;52.472;13.108;2022-09-09T10:38:09;20.70;99.90
9776;DHT22;4927;52.472;13.108;2022-09-09T10:43:20;20.70;99.90
9776;DHT22;4927;52.472;13.108;2022-09-09T10:48:31;20.80;99.90
9776;DHT22;4927;52.472;13.108;2022-09-09T10:59:07;21.40;99.90
9776;DHT22;4927;52.472;13.108;2022-09-09T11:04:30;21.90;99.90
9776;DHT22;4927;52.472;13.108;2022-09-09T11:09:37;22.20;99.90
9776;DHT22;4927;52.472;13.108;2022-09-09T11:14:43;22.30;99.90
9776;DHT22;4927;52.472;13.108;2022-09-09T11:19:47;22.40;99.90
9776;DHT22;4927;52.472;13.108;2022-09-09T11:25:03;22.90;99.90
9776;DHT22;4927;52.472;13.108;2022-09-09T11:30:21;23.30;99.90
9776;DHT22;4927;52.472;13.108;2022-09-09T11:40:42;23.10;99.90
9776;DHT22;4927;52.472;13.108;2022-09-09T11:45:51;23.40;99.90
9776;DHT22;4927;52.472;13.108;2022-09-09T11:51:02;23.40;99.90
9776;DHT22;4927;52.472;13.108;2022-09-09T11:56:09;23.30;99.90
9776;DHT22;4927;52.472;13.108;2022-09-09T12:01:14;23.10;99.90
9776;DHT22;4927;52.472;13.108;2022-09-09T12:06:26;23.80;99.90
9776;DHT22;4927;52.472;13.108;2022-09-09T12:11:32;24.20;99.90
9776;DHT22;4927;52.472;13.108;2022-09-09T12:16:38;24.10;99.90
9776;DHT22;4927;52.472;13.108;2022-09-09T12:21:48;24.00;99.90
9776;DHT22;4927;52.472;13.108;2022-09-09T12:26:55;23.90;99.90
9776;DHT22;4927;52.472;13.108;2022-09-09T12:32:10;23.80;99.90
9776;DHT22;4927;52.472;13.108;2022-09-09T12:37:23;24.00;99.90
9776;DHT22;4927;52.472;13.108;2022-09-09T12:42:24;23.80;99.90
9776;DHT22;4927;52.472;13.108;2022-09-09T12:47:43;23.80;99.90
9776;DHT22;4927;52.472;13.108;2022-09-09T12:52:48;23.70;99.90
9776;DHT22;4927;52.472;13.108;2022-09-09T12:57:54;23.30;99.90
9776;DHT22;4927;52.472;13.108;2022-09-09T13:03:02;22.90;99.90
9776;DHT22;4927;52.472;13.108;2022-09-09T13:08:09;22.90;99.90
9776;DHT22;4927;52.472;13.108;2022-09-09T13:13:16;22.70;99.90
9776;DHT22;4927;52.472;13.108;2022-09-09T13:18:23;22.70;99.90
9776;DHT22;4927;52.472;13.108;2022-09-09T13:23:30;22.60;99.90
9776;DHT22;4927;52.472;13.108;2022-09-09T13:28:36;22.50;99.90
9776;DHT22;4927;52.472;13.108;2022-09-09T13:33:42;22.30;99.90
9776;DHT22;4927;52.472;13.108;2022-09-09T13:38:55;22.20;99.90
9776;DHT22;4927;52.472;13.108;2022-09-09T13:44:04;22.20;99.90
9776;DHT22;4927;52.472;13.108;2022-09-09T13:49:21;22.30;99.90
9776;DHT22;4927;52.472;13.108;2022-09-09T13:54:25;22.30;99.90
9776;DHT22;4927;52.472;13.108;2022-09-09T13:59:32;22.40;99.90
9776;DHT22;4927;52.472;13.108;2022-09-09T14:04:39;22.40;99.90
9776;DHT22;4927;52.472;13.108;2022-09-09T14:09:45;22.40;99.90
9776;DHT22;4927;52.472;13.108;2022-09-09T14:14:52;22.40;99.90
9776;DHT22;4927;52.472;13.108;2022-09-09T14:19:58;22.40;99.90
9776;DHT22;4927;52.472;13.108;2022-09-09T14:25:05;22.50;99.90
9776;DHT22;4927;52.472;13.108;2022-09-09T14:30:12;22.60;99.90
9776;DHT22;4927;52.472;13.108;2022-09-09T14:35:19;22.80;99.90
9776;DHT22;4927;52.472;13.108;2022-09-09T14:40:25;22.80;99.90
9776;DHT22;4927;52.472;13.108;2022-09-09T14:45:32;22.90;99.90
9776;DHT22;4927;52.472;13.108;2022-09-09T14:50:38;22.80;99.90
9776;DHT22;4927;52.472;13.108;2022-09-09T14:55:44;22.80;99.90
9776;DHT22;4927;52.472;13.108;2022-09-09T15:00:50;22.60;99.90
9776;DHT22;4927;52.472;13.108;2022-09-09T15:05:56;22.60;99.90
9776;DHT22;4927;52.472;13.108;2022-09-09T15:11:04;22.40;99.90
9776;DHT22;4927;52.472;13.108;2022-09-09T15:16:15;22.40;99.90
9776;DHT22;4927;52.472;13.108;2022-09-09T15:21:22;22.40;99.90
9776;DHT22;4927;52.472;13.108;2022-09-09T15:26:26;22.40;99.90
9776;DHT22;4927;52.472;13.108;2022-09-09T15:31:32;22.30;99.90
9776;DHT22;4927;52.472;13.108;2022-09-09T15:36:39;22.20;99.90
9776;DHT22;4927;52.472;13.108;2022-09-09T15:41:44;22.00;99.90
9776;DHT22;4927;52.472;13.108;2022-09-09T15:46:52;21.80;99.90
9776;DHT22;4927;52.472;13.108;2022-09-09T15:51:59;21.60;99.90
9776;DHT22;4927;52.472;13.108;2022-09-09T15:57:05;21.60;99.90
9776;DHT22;4927;52.472;13.108;2022-09-09T16:02:11;21.50;99.90
9776;DHT22;4927;52.472;13.108;2022-09-09T16:07:17;21.40;99.90
9776;DHT22;4927;52.472;13.108;2022-09-09T16:12:23;21.20;99.90
9776;DHT22;4927;52.472;13.108;2022-09-09T16:17:30;21.10;99.90
9776;DHT22;4927;52.472;13.108;2022-09-09T16:22:36;20.90;99.90
9776;DHT22;4927;52.472;13.108;2022-09-09T16:27:42;20.70;99.90
9776;DHT22;4927;52.472;13.108;2022-09-09T16:32:49;20.60;99.90
9776;DHT22;4927;52.472;13.108;2022-09-09T16:37:55;20.50;99.90
9776;DHT22;4927;52.472;13.108;2022-09-09T16:43:02;20.30;99.90
9776;DHT22;4927;52.472;13.108;2022-09-09T16:48:08;20.20;99.90
9776;DHT22;4927;52.472;13.108;2022-09-09T16:53:14;20.10;99.90
9776;DHT22;4927;52.472;13.108;2022-09-09T16:58:18;19.90;99.90
9776;DHT22;4927;52.472;13.108;2022-09-09T17:03:26;19.80;99.90
9776;DHT22;4927;52.472;13.108;2022-09-09T17:08:33;19.60;99.90
9776;DHT22;4927;52.472;13.108;2022-09-09T17:13:40;19.50;99.90
9776;DHT22;4927;52.472;13.108;2022-09-09T17:18:45;19.30;99.90
9776;DHT22;4927;52.472;13.108;2022-09-09T17:23:52;19.30;99.90
9776;DHT22;4927;52.472;13.108;2022-09-09T17:28:59;19.20;99.90
9776;DHT22;4927;52.472;13.108;2022-09-09T17:34:04;19.00;99.90
9776;DHT22;4927;52.472;13.108;2022-09-09T17:39:10;18.90;99.90
9776;DHT22;4927;52.472;13.108;2022-09-09T17:44:17;18.90;99.90
9776;DHT22;4927;52.472;13.108;2022-09-09T17:49:23;18.80;99.90
9776;DHT22;4927;52.472;13.108;2022-09-09T17:54:29;18.60;99.90
9776;DHT22;4927;52.472;13.108;2022-09-09T17:59:36;18.30;99.90
9776;DHT22;4927;52.472;13.108;2022-09-09T18:04:42;18.30;99.90
9776;DHT22;4927;52.472;13.108;2022-09-09T18:09:47;18.10;99.90
9776;DHT22;4927;52.472;13.108;2022-09-09T18:14:53;18.00;99.90
9776;DHT22;4927;52.472;13.108;2022-09-09T18:19:59;17.90;99.90
9776;DHT22;4927;52.472;13.108;2022-09-09T18:25:06;17.90;99.90
9776;DHT22;4927;52.472;13.108;2022-09-09T18:30:12;17.90;99.90
9776;DHT22;4927;52.472;13.108;2022-09-09T18:35:19;17.80;99.90
9776;DHT22;4927;52.472;13.108;2022-09-09T18:40:25;17.70;99.90
9776;DHT22;4927;52.472;13.108;2022-09-09T18:45:34;17.60;99.90
9776;DHT22;4927;52.472;13.108;2022-09-09T18:50:38;17.50;99.90
9776;DHT22;4927;52.472;13.108;2022-09-09T18:55:45;17.50;99.90
9776;DHT22;4927;52.472;13.108;2022-09-09T19:00:51;17.60;99.90
9776;DHT22;4927;52.472;13.108;2022-09-09T19:06:00;17.60;99.90
9776;DHT22;4927;52.472;13.108;2022-09-09T19:11:06;17.60;99.90
9776;DHT22;4927;52.472;13.108;2022-09-09T19:16:13;17.60;99.90
9776;DHT22;4927;52.472;13.108;2022-09-09T19:21:21;17.50;99.90
9776;DHT22;4927;52.472;13.108;2022-09-09T19:26:28;17.40;99.90
9776;DHT22;4927;52.472;13.108;2022-09-09T19:31:33;17.40;99.90
9776;DHT22;4927;52.472;13.108;2022-09-09T19:36:40;17.40;99.90
9776;DHT22;4927;52.472;13.108;2022-09-09T19:41:46;17.30;99.90
9776;DHT22;4927;52.472;13.108;2022-09-09T19:46:52;17.20;99.90
9776;DHT22;4927;52.472;13.108;2022-09-09T19:51:58;17.20;99.90
9776;DHT22;4927;52.472;13.108;2022-09-09T19:57:28;17.10;99.90
9776;DHT22;4927;52.472;13.108;2022-09-09T20:02:34;17.00;99.90
9776;DHT22;4927;52.472;13.108;2022-09-09T20:07:41;17.10;99.90
9776;DHT22;4927;52.472;13.108;2022-09-09T20:12:47;17.10;99.90
9776;DHT22;4927;52.472;13.108;2022-09-09T20:17:53;17.00;99.90
9776;DHT22;4927;52.472;13.108;2022-09-09T20:23:00;17.00;99.90
9776;DHT22;4927;52.472;13.108;2022-09-09T20:28:06;17.00;99.90
9776;DHT22;4927;52.472;13.108;2022-09-09T20:33:13;17.00;99.90
9776;DHT22;4927;52.472;13.108;2022-09-09T20:38:19;16.80;99.90
9776;DHT22;4927;52.472;13.108;2022-09-09T20:43:26;16.80;99.90
9776;DHT22;4927;52.472;13.108;2022-09-09T20:48:32;16.70;99.90
9776;DHT22;4927;52.472;13.108;2022-09-09T20:53:38;16.60;99.90
9776;DHT22;4927;52.472;13.108;2022-09-09T20:58:45;16.50;99.90
9776;DHT22;4927;52.472;13.108;2022-09-09T21:03:51;16.50;99.90
9776;DHT22;4927;52.472;13.108;2022-09-09T21:08:56;16.40;99.90
9776;DHT22;4927;52.472;13.108;2022-09-09T21:14:03;16.30;99.90
9776;DHT22;4927;52.472;13.108;2022-09-09T21:19:09;16.30;99.90
9776;DHT22;4927;52.472;13.108;2022-09-09T21:24:15;16.30;99.90
9776;DHT22;4927;52.472;13.108;2022-09-09T21:29:21;16.20;99.90
9776;DHT22;4927;52.472;13.108;2022-09-09T21:34:28;16.20;99.90
9776;DHT22;4927;52.472;13.108;2022-09-09T21:39:34;16.20;99.90
9776;DHT22;4927;52.472;13.108;2022-09-09T21:44:42;16.00;99.90
9776;DHT22;4927;52.472;13.108;2022-09-09T21:49:46;16.10;99.90
9776;DHT22;4927;52.472;13.108;2022-09-09T21:54:52;16.00;99.90
9776;DHT22;4927;52.472;13.108;2022-09-09T22:00:04;16.00;99.90
9776;DHT22;4927;52.472;13.108;2022-09-09T22:15:41;15.70;99.90
9776;DHT22;4927;52.472;13.108;2022-09-09T22:20:46;15.70;99.90
9776;DHT22;4927;52.472;13.108;2022-09-09T22:25:53;15.70;99.90
9776;DHT22;4927;52.472;13.108;2022-09-09T22:31:00;15.70;99.90
9776;DHT22;4927;52.472;13.108;2022-09-09T22:36:06;15.70;99.90
9776;DHT22;4927;52.472;13.108;2022-09-09T22:41:13;15.60;99.90
9776;DHT22;4927;52.472;13.108;2022-09-09T22:46:19;15.60;99.90
9776;DHT22;4927;52.472;13.108;2022-09-09T22:51:29;15.60;99.90
9776;DHT22;4927;52.472;13.108;2022-09-09T22:56:35;15.60;99.90
9776;DHT22;4927;52.472;13.108;2022-09-09T23:01:42;15.60;99.90
9776;DHT22;4927;52.472;13.108;2022-09-09T23:06:49;15.60;99.90
9776;DHT22;4927;52.472;13.108;2022-09-09T23:11:56;15.40;99.90
9776;DHT22;4927;52.472;13.108;2022-09-09T23:17:02;15.40;99.90
9776;DHT22;4927;52.472;13.108;2022-09-09T23:22:09;15.30;99.90
9776;DHT22;4927;52.472;13.108;2022-09-09T23:27:15;15.20;99.90
9776;DHT22;4927;52.472;13.108;2022-09-09T23:32:22;15.10;99.90
9776;DHT22;4927;52.472;13.108;2022-09-09T23:37:29;15.00;99.90
9776;DHT22;4927;52.472;13.108;2022-09-09T23:42:35;15.00;99.90
9776;DHT22;4927;52.472;13.108;2022-09-09T23:47:41;15.00;99.90
9776;DHT22;4927;52.472;13.108;2022-09-09T23:52:47;15.00;99.90
9776;DHT22;4927;52.472;13.108;2022-09-09T23:57:54;15.00;99.90
